sensor_id;sensor_type;location;lat;lon;timestamp;P1;durP1;ratioP1;P2;durP2;ratioP2
25615;SDS011;13482;48.234;13.006;2023-11-21T00:00:07;2.45;;;1.30;;
25615;SDS011;13482;48.234;13.006;2023-11-21T00:02:38;2.43;;;1.10;;
25615;SDS011;13482;48.234;13.006;2023-11-21T00:05:08;2.58;;;1.13;;
25615;SDS011;13482;48.234;13.006;2023-11-21T00:07:39;2.70;;;1.05;;
25615;SDS011;13482;48.234;13.006;2023-11-21T00:10:09;2.72;;;0.90;;
25615;SDS011;13482;48.234;13.006;2023-11-21T00:12:37;1.73;;;1.00;;
25615;SDS011;13482;48.234;13.006;2023-11-21T00:15:09;1.93;;;1.00;;
25615;SDS011;13482;48.234;13.006;2023-11-21T00:17:37;2.00;;;1.08;;
25615;SDS011;13482;48.234;13.006;2023-11-21T00:20:06;2.28;;;1.00;;
25615;SDS011;13482;48.234;13.006;2023-11-21T00:22:35;2.40;;;1.00;;
25615;SDS011;13482;48.234;13.006;2023-11-21T00:25:03;1.08;;;0.65;;
25615;SDS011;13482;48.234;13.006;2023-11-21T00:27:31;2.75;;;0.90;;
25615;SDS011;13482;48.234;13.006;2023-11-21T00:29:59;1.52;;;0.60;;
25615;SDS011;13482;48.234;13.006;2023-11-21T00:35:32;3.63;;;0.88;;
25615;SDS011;13482;48.234;13.006;2023-11-21T00:38:00;1.65;;;0.70;;
25615;SDS011;13482;48.234;13.006;2023-11-21T00:40:27;2.53;;;0.90;;
25615;SDS011;13482;48.234;13.006;2023-11-21T00:42:55;1.83;;;0.65;;
25615;SDS011;13482;48.234;13.006;2023-11-21T00:45:22;4.40;;;0.93;;
25615;SDS011;13482;48.234;13.006;2023-11-21T00:47:50;1.65;;;0.80;;
25615;SDS011;13482;48.234;13.006;2023-11-21T00:50:17;3.22;;;0.70;;
25615;SDS011;13482;48.234;13.006;2023-11-21T00:52:46;3.05;;;0.90;;
25615;SDS011;13482;48.234;13.006;2023-11-21T00:55:13;3.58;;;1.10;;
25615;SDS011;13482;48.234;13.006;2023-11-21T00:57:41;1.70;;;0.73;;
25615;SDS011;13482;48.234;13.006;2023-11-21T01:00:08;2.40;;;1.13;;
25615;SDS011;13482;48.234;13.006;2023-11-21T01:02:44;2.33;;;0.95;;
25615;SDS011;13482;48.234;13.006;2023-11-21T01:05:12;2.45;;;0.85;;
25615;SDS011;13482;48.234;13.006;2023-11-21T01:07:40;2.03;;;0.95;;
25615;SDS011;13482;48.234;13.006;2023-11-21T01:10:08;1.63;;;0.90;;
25615;SDS011;13482;48.234;13.006;2023-11-21T01:12:36;2.10;;;0.90;;
25615;SDS011;13482;48.234;13.006;2023-11-21T01:15:05;1.90;;;0.90;;
25615;SDS011;13482;48.234;13.006;2023-11-21T01:17:34;3.22;;;1.17;;
25615;SDS011;13482;48.234;13.006;2023-11-21T01:20:03;2.20;;;0.88;;
25615;SDS011;13482;48.234;13.006;2023-11-21T01:22:40;2.58;;;1.05;;
25615;SDS011;13482;48.234;13.006;2023-11-21T01:25:08;1.13;;;0.70;;
25615;SDS011;13482;48.234;13.006;2023-11-21T01:27:37;1.45;;;0.70;;
25615;SDS011;13482;48.234;13.006;2023-11-21T01:30:05;2.58;;;0.95;;
25615;SDS011;13482;48.234;13.006;2023-11-21T01:32:34;3.42;;;1.00;;
25615;SDS011;13482;48.234;13.006;2023-11-21T01:35:03;2.35;;;0.80;;
25615;SDS011;13482;48.234;13.006;2023-11-21T01:37:32;1.55;;;0.80;;
25615;SDS011;13482;48.234;13.006;2023-11-21T01:40:03;2.40;;;0.80;;
25615;SDS011;13482;48.234;13.006;2023-11-21T01:42:36;2.38;;;0.70;;
25615;SDS011;13482;48.234;13.006;2023-11-21T01:45:04;1.98;;;0.85;;
25615;SDS011;13482;48.234;13.006;2023-11-21T01:47:33;1.63;;;0.63;;
25615;SDS011;13482;48.234;13.006;2023-11-21T01:50:03;2.00;;;0.80;;
25615;SDS011;13482;48.234;13.006;2023-11-21T01:52:34;2.22;;;0.82;;
25615;SDS011;13482;48.234;13.006;2023-11-21T01:55:03;1.67;;;0.80;;
25615;SDS011;13482;48.234;13.006;2023-11-21T01:57:38;2.67;;;0.73;;
25615;SDS011;13482;48.234;13.006;2023-11-21T02:00:06;2.42;;;0.90;;
25615;SDS011;13482;48.234;13.006;2023-11-21T02:02:43;1.75;;;0.68;;
25615;SDS011;13482;48.234;13.006;2023-11-21T02:05:12;3.10;;;0.90;;
25615;SDS011;13482;48.234;13.006;2023-11-21T02:07:48;1.85;;;0.80;;
25615;SDS011;13482;48.234;13.006;2023-11-21T02:10:16;2.30;;;0.70;;
25615;SDS011;13482;48.234;13.006;2023-11-21T02:12:45;3.83;;;0.90;;
25615;SDS011;13482;48.234;13.006;2023-11-21T02:15:15;2.30;;;1.00;;
25615;SDS011;13482;48.234;13.006;2023-11-21T02:17:47;2.00;;;0.80;;
25615;SDS011;13482;48.234;13.006;2023-11-21T02:20:21;1.80;;;0.70;;
25615;SDS011;13482;48.234;13.006;2023-11-21T02:22:55;2.15;;;0.70;;
25615;SDS011;13482;48.234;13.006;2023-11-21T02:25:31;2.03;;;0.80;;
25615;SDS011;13482;48.234;13.006;2023-11-21T02:28:01;1.88;;;0.70;;
25615;SDS011;13482;48.234;13.006;2023-11-21T02:30:30;1.13;;;0.52;;
25615;SDS011;13482;48.234;13.006;2023-11-21T02:33:01;3.40;;;0.80;;
25615;SDS011;13482;48.234;13.006;2023-11-21T02:35:29;2.15;;;0.93;;
25615;SDS011;13482;48.234;13.006;2023-11-21T02:37:58;2.30;;;1.05;;
25615;SDS011;13482;48.234;13.006;2023-11-21T02:40:26;3.80;;;1.00;;
25615;SDS011;13482;48.234;13.006;2023-11-21T02:42:54;2.47;;;1.10;;
25615;SDS011;13482;48.234;13.006;2023-11-21T02:45:24;4.10;;;1.35;;
25615;SDS011;13482;48.234;13.006;2023-11-21T02:47:52;2.22;;;1.30;;
25615;SDS011;13482;48.234;13.006;2023-11-21T02:50:25;2.70;;;1.40;;
25615;SDS011;13482;48.234;13.006;2023-11-21T02:52:52;3.88;;;1.13;;
25615;SDS011;13482;48.234;13.006;2023-11-21T02:55:20;3.05;;;1.27;;
25615;SDS011;13482;48.234;13.006;2023-11-21T02:57:48;2.97;;;1.33;;
25615;SDS011;13482;48.234;13.006;2023-11-21T03:00:16;2.95;;;1.10;;
25615;SDS011;13482;48.234;13.006;2023-11-21T03:02:44;3.35;;;1.58;;
25615;SDS011;13482;48.234;13.006;2023-11-21T03:05:14;3.25;;;1.40;;
25615;SDS011;13482;48.234;13.006;2023-11-21T03:07:41;2.55;;;1.42;;
25615;SDS011;13482;48.234;13.006;2023-11-21T03:10:09;3.28;;;1.40;;
25615;SDS011;13482;48.234;13.006;2023-11-21T03:12:38;3.08;;;1.25;;
25615;SDS011;13482;48.234;13.006;2023-11-21T03:15:07;1.88;;;0.95;;
25615;SDS011;13482;48.234;13.006;2023-11-21T03:17:36;2.05;;;1.00;;
25615;SDS011;13482;48.234;13.006;2023-11-21T03:20:04;3.65;;;1.23;;
25615;SDS011;13482;48.234;13.006;2023-11-21T03:22:38;2.97;;;1.20;;
25615;SDS011;13482;48.234;13.006;2023-11-21T03:25:06;2.25;;;1.08;;
25615;SDS011;13482;48.234;13.006;2023-11-21T03:27:38;2.78;;;1.17;;
25615;SDS011;13482;48.234;13.006;2023-11-21T03:30:07;3.33;;;1.20;;
25615;SDS011;13482;48.234;13.006;2023-11-21T03:32:35;2.97;;;1.27;;
25615;SDS011;13482;48.234;13.006;2023-11-21T03:35:03;2.50;;;1.10;;
25615;SDS011;13482;48.234;13.006;2023-11-21T03:37:33;2.75;;;1.13;;
25615;SDS011;13482;48.234;13.006;2023-11-21T03:40:05;2.17;;;1.15;;
25615;SDS011;13482;48.234;13.006;2023-11-21T03:42:35;2.50;;;1.30;;
25615;SDS011;13482;48.234;13.006;2023-11-21T03:45:03;2.10;;;1.00;;
25615;SDS011;13482;48.234;13.006;2023-11-21T03:47:35;3.53;;;1.30;;
25615;SDS011;13482;48.234;13.006;2023-11-21T03:50:03;2.15;;;1.27;;
25615;SDS011;13482;48.234;13.006;2023-11-21T03:52:32;2.03;;;1.10;;
25615;SDS011;13482;48.234;13.006;2023-11-21T03:55:00;3.08;;;1.42;;
25615;SDS011;13482;48.234;13.006;2023-11-21T03:57:29;3.40;;;1.50;;
25615;SDS011;13482;48.234;13.006;2023-11-21T03:59:56;2.42;;;1.27;;
25615;SDS011;13482;48.234;13.006;2023-11-21T04:02:24;2.80;;;1.15;;
25615;SDS011;13482;48.234;13.006;2023-11-21T04:04:52;2.75;;;1.15;;
25615;SDS011;13482;48.234;13.006;2023-11-21T04:07:20;2.15;;;1.10;;
25615;SDS011;13482;48.234;13.006;2023-11-21T04:09:48;2.17;;;1.10;;
25615;SDS011;13482;48.234;13.006;2023-11-21T04:12:16;1.65;;;0.93;;
25615;SDS011;13482;48.234;13.006;2023-11-21T04:14:43;1.73;;;0.90;;
25615;SDS011;13482;48.234;13.006;2023-11-21T04:17:11;1.60;;;0.77;;
25615;SDS011;13482;48.234;13.006;2023-11-21T04:19:39;2.05;;;0.80;;
25615;SDS011;13482;48.234;13.006;2023-11-21T04:22:06;2.33;;;1.05;;
25615;SDS011;13482;48.234;13.006;2023-11-21T04:24:34;2.42;;;0.95;;
25615;SDS011;13482;48.234;13.006;2023-11-21T04:27:01;2.40;;;1.00;;
25615;SDS011;13482;48.234;13.006;2023-11-21T04:29:29;2.97;;;1.02;;
25615;SDS011;13482;48.234;13.006;2023-11-21T04:31:57;2.00;;;0.95;;
25615;SDS011;13482;48.234;13.006;2023-11-21T04:34:25;2.53;;;0.80;;
25615;SDS011;13482;48.234;13.006;2023-11-21T04:36:52;2.10;;;0.80;;
25615;SDS011;13482;48.234;13.006;2023-11-21T04:39:20;2.28;;;0.77;;
25615;SDS011;13482;48.234;13.006;2023-11-21T04:41:48;1.50;;;0.80;;
25615;SDS011;13482;48.234;13.006;2023-11-21T04:44:15;2.03;;;0.63;;
25615;SDS011;13482;48.234;13.006;2023-11-21T04:46:44;2.80;;;1.08;;
25615;SDS011;13482;48.234;13.006;2023-11-21T04:49:11;2.80;;;0.90;;
25615;SDS011;13482;48.234;13.006;2023-11-21T04:51:40;1.55;;;0.77;;
25615;SDS011;13482;48.234;13.006;2023-11-21T04:54:08;3.63;;;0.98;;
25615;SDS011;13482;48.234;13.006;2023-11-21T04:56:37;1.88;;;0.80;;
25615;SDS011;13482;48.234;13.006;2023-11-21T04:59:04;2.15;;;0.90;;
25615;SDS011;13482;48.234;13.006;2023-11-21T05:01:32;3.40;;;1.20;;
25615;SDS011;13482;48.234;13.006;2023-11-21T05:03:59;2.30;;;1.00;;
25615;SDS011;13482;48.234;13.006;2023-11-21T05:06:27;3.03;;;1.10;;
25615;SDS011;13482;48.234;13.006;2023-11-21T05:08:54;3.80;;;1.27;;
25615;SDS011;13482;48.234;13.006;2023-11-21T05:11:25;2.13;;;1.17;;
25615;SDS011;13482;48.234;13.006;2023-11-21T05:13:53;1.50;;;0.80;;
25615;SDS011;13482;48.234;13.006;2023-11-21T05:16:25;2.22;;;1.00;;
25615;SDS011;13482;48.234;13.006;2023-11-21T05:18:54;2.78;;;1.15;;
25615;SDS011;13482;48.234;13.006;2023-11-21T05:21:27;1.70;;;0.95;;
25615;SDS011;13482;48.234;13.006;2023-11-21T05:23:57;4.05;;;1.58;;
25615;SDS011;13482;48.234;13.006;2023-11-21T05:26:25;3.72;;;1.50;;
25615;SDS011;13482;48.234;13.006;2023-11-21T05:28:52;2.90;;;1.67;;
25615;SDS011;13482;48.234;13.006;2023-11-21T05:31:20;2.88;;;1.45;;
25615;SDS011;13482;48.234;13.006;2023-11-21T05:33:48;2.83;;;1.35;;
25615;SDS011;13482;48.234;13.006;2023-11-21T05:36:15;3.33;;;1.77;;
25615;SDS011;13482;48.234;13.006;2023-11-21T05:38:43;3.65;;;1.90;;
25615;SDS011;13482;48.234;13.006;2023-11-21T05:41:10;3.53;;;1.70;;
25615;SDS011;13482;48.234;13.006;2023-11-21T05:43:39;2.90;;;1.45;;
25615;SDS011;13482;48.234;13.006;2023-11-21T05:46:07;3.58;;;1.52;;
25615;SDS011;13482;48.234;13.006;2023-11-21T05:48:35;1.95;;;1.05;;
25615;SDS011;13482;48.234;13.006;2023-11-21T05:51:06;1.70;;;1.10;;
25615;SDS011;13482;48.234;13.006;2023-11-21T05:53:35;1.92;;;0.93;;
25615;SDS011;13482;48.234;13.006;2023-11-21T05:56:02;1.52;;;0.80;;
25615;SDS011;13482;48.234;13.006;2023-11-21T05:58:30;1.88;;;0.70;;
25615;SDS011;13482;48.234;13.006;2023-11-21T06:00:58;0.93;;;0.50;;
25615;SDS011;13482;48.234;13.006;2023-11-21T06:03:26;1.10;;;0.60;;
25615;SDS011;13482;48.234;13.006;2023-11-21T06:05:54;2.17;;;0.70;;
25615;SDS011;13482;48.234;13.006;2023-11-21T06:08:21;1.75;;;0.68;;
25615;SDS011;13482;48.234;13.006;2023-11-21T06:10:49;3.15;;;0.73;;
25615;SDS011;13482;48.234;13.006;2023-11-21T06:13:16;2.45;;;1.00;;
25615;SDS011;13482;48.234;13.006;2023-11-21T06:15:51;1.73;;;0.60;;
25615;SDS011;13482;48.234;13.006;2023-11-21T06:18:18;2.72;;;0.65;;
25615;SDS011;13482;48.234;13.006;2023-11-21T06:20:46;2.03;;;0.90;;
25615;SDS011;13482;48.234;13.006;2023-11-21T06:23:14;4.00;;;1.40;;
25615;SDS011;13482;48.234;13.006;2023-11-21T06:25:43;2.72;;;1.02;;
25615;SDS011;13482;48.234;13.006;2023-11-21T06:28:11;2.22;;;1.08;;
25615;SDS011;13482;48.234;13.006;2023-11-21T06:30:38;3.88;;;0.95;;
25615;SDS011;13482;48.234;13.006;2023-11-21T06:33:06;1.65;;;0.88;;
25615;SDS011;13482;48.234;13.006;2023-11-21T06:35:34;2.33;;;1.00;;
25615;SDS011;13482;48.234;13.006;2023-11-21T06:38:02;2.17;;;1.13;;
25615;SDS011;13482;48.234;13.006;2023-11-21T06:40:30;2.20;;;1.10;;
25615;SDS011;13482;48.234;13.006;2023-11-21T06:43:00;3.38;;;1.20;;
25615;SDS011;13482;48.234;13.006;2023-11-21T06:45:28;2.13;;;1.00;;
25615;SDS011;13482;48.234;13.006;2023-11-21T06:47:56;2.55;;;1.05;;
25615;SDS011;13482;48.234;13.006;2023-11-21T06:50:23;1.90;;;1.08;;
25615;SDS011;13482;48.234;13.006;2023-11-21T06:52:51;2.15;;;1.10;;
25615;SDS011;13482;48.234;13.006;2023-11-21T06:55:19;2.40;;;1.08;;
25615;SDS011;13482;48.234;13.006;2023-11-21T06:57:47;1.88;;;1.02;;
25615;SDS011;13482;48.234;13.006;2023-11-21T07:00:15;2.33;;;1.27;;
25615;SDS011;13482;48.234;13.006;2023-11-21T07:02:45;1.95;;;1.20;;
25615;SDS011;13482;48.234;13.006;2023-11-21T07:05:13;4.28;;;1.65;;
25615;SDS011;13482;48.234;13.006;2023-11-21T07:07:42;2.83;;;1.52;;
25615;SDS011;13482;48.234;13.006;2023-11-21T07:10:10;3.33;;;1.58;;
25615;SDS011;13482;48.234;13.006;2023-11-21T07:12:38;3.08;;;1.60;;
25615;SDS011;13482;48.234;13.006;2023-11-21T07:15:07;3.00;;;1.55;;
25615;SDS011;13482;48.234;13.006;2023-11-21T07:17:39;3.00;;;1.48;;
25615;SDS011;13482;48.234;13.006;2023-11-21T07:20:07;3.53;;;1.55;;
25615;SDS011;13482;48.234;13.006;2023-11-21T07:22:38;2.53;;;1.50;;
25615;SDS011;13482;48.234;13.006;2023-11-21T07:25:05;3.65;;;1.88;;
25615;SDS011;13482;48.234;13.006;2023-11-21T07:27:33;4.47;;;2.22;;
25615;SDS011;13482;48.234;13.006;2023-11-21T07:30:02;4.97;;;2.72;;
25615;SDS011;13482;48.234;13.006;2023-11-21T07:32:32;5.28;;;2.70;;
25615;SDS011;13482;48.234;13.006;2023-11-21T07:35:00;4.45;;;2.42;;
25615;SDS011;13482;48.234;13.006;2023-11-21T07:37:28;3.47;;;1.70;;
25615;SDS011;13482;48.234;13.006;2023-11-21T07:39:56;3.65;;;1.70;;
25615;SDS011;13482;48.234;13.006;2023-11-21T07:42:23;7.40;;;5.80;;
25615;SDS011;13482;48.234;13.006;2023-11-21T07:44:53;6.43;;;5.10;;
25615;SDS011;13482;48.234;13.006;2023-11-21T07:47:20;5.75;;;3.80;;
25615;SDS011;13482;48.234;13.006;2023-11-21T07:49:48;4.80;;;3.20;;
25615;SDS011;13482;48.234;13.006;2023-11-21T07:52:16;4.13;;;2.50;;
25615;SDS011;13482;48.234;13.006;2023-11-21T07:54:43;5.70;;;3.90;;
25615;SDS011;13482;48.234;13.006;2023-11-21T07:57:11;6.32;;;3.67;;
25615;SDS011;13482;48.234;13.006;2023-11-21T07:59:40;4.28;;;2.47;;
25615;SDS011;13482;48.234;13.006;2023-11-21T08:02:08;4.53;;;2.30;;
25615;SDS011;13482;48.234;13.006;2023-11-21T08:04:35;3.58;;;1.42;;
25615;SDS011;13482;48.234;13.006;2023-11-21T08:07:03;2.97;;;1.50;;
25615;SDS011;13482;48.234;13.006;2023-11-21T08:09:30;2.38;;;1.38;;
25615;SDS011;13482;48.234;13.006;2023-11-21T08:11:59;3.45;;;1.17;;
25615;SDS011;13482;48.234;13.006;2023-11-21T08:14:29;2.72;;;1.00;;
25615;SDS011;13482;48.234;13.006;2023-11-21T08:16:57;2.08;;;1.10;;
25615;SDS011;13482;48.234;13.006;2023-11-21T08:19:24;3.10;;;1.15;;
25615;SDS011;13482;48.234;13.006;2023-11-21T08:21:52;2.00;;;0.93;;
25615;SDS011;13482;48.234;13.006;2023-11-21T08:24:21;1.70;;;0.88;;
25615;SDS011;13482;48.234;13.006;2023-11-21T08:26:49;2.30;;;0.93;;
25615;SDS011;13482;48.234;13.006;2023-11-21T08:29:18;2.22;;;0.90;;
25615;SDS011;13482;48.234;13.006;2023-11-21T08:31:47;2.05;;;0.93;;
25615;SDS011;13482;48.234;13.006;2023-11-21T08:34:15;2.65;;;0.80;;
25615;SDS011;13482;48.234;13.006;2023-11-21T08:36:43;1.75;;;0.85;;
25615;SDS011;13482;48.234;13.006;2023-11-21T08:39:12;1.65;;;0.70;;
25615;SDS011;13482;48.234;13.006;2023-11-21T08:41:40;2.10;;;0.82;;
25615;SDS011;13482;48.234;13.006;2023-11-21T08:44:08;1.80;;;0.90;;
25615;SDS011;13482;48.234;13.006;2023-11-21T08:46:35;2.00;;;0.88;;
25615;SDS011;13482;48.234;13.006;2023-11-21T08:49:04;1.98;;;0.85;;
25615;SDS011;13482;48.234;13.006;2023-11-21T08:51:33;1.92;;;1.08;;
25615;SDS011;13482;48.234;13.006;2023-11-21T08:54:00;3.22;;;0.82;;
25615;SDS011;13482;48.234;13.006;2023-11-21T08:56:31;1.00;;;0.60;;
25615;SDS011;13482;48.234;13.006;2023-11-21T08:58:59;2.67;;;0.85;;
25615;SDS011;13482;48.234;13.006;2023-11-21T09:01:29;2.05;;;0.88;;
25615;SDS011;13482;48.234;13.006;2023-11-21T09:04:00;1.48;;;0.80;;
25615;SDS011;13482;48.234;13.006;2023-11-21T09:06:29;2.45;;;0.70;;
25615;SDS011;13482;48.234;13.006;2023-11-21T09:08:57;2.22;;;0.80;;
25615;SDS011;13482;48.234;13.006;2023-11-21T09:11:24;2.97;;;1.00;;
25615;SDS011;13482;48.234;13.006;2023-11-21T09:13:57;1.40;;;0.68;;
25615;SDS011;13482;48.234;13.006;2023-11-21T09:16:26;1.55;;;0.65;;
25615;SDS011;13482;48.234;13.006;2023-11-21T09:18:53;2.30;;;1.15;;
25615;SDS011;13482;48.234;13.006;2023-11-21T09:21:21;2.33;;;1.05;;
25615;SDS011;13482;48.234;13.006;2023-11-21T09:23:50;4.15;;;1.05;;
25615;SDS011;13482;48.234;13.006;2023-11-21T09:26:18;1.73;;;0.95;;
25615;SDS011;13482;48.234;13.006;2023-11-21T09:28:45;1.95;;;0.75;;
25615;SDS011;13482;48.234;13.006;2023-11-21T09:31:14;2.15;;;0.68;;
25615;SDS011;13482;48.234;13.006;2023-11-21T09:33:43;2.13;;;0.70;;
25615;SDS011;13482;48.234;13.006;2023-11-21T09:36:11;1.60;;;0.60;;
25615;SDS011;13482;48.234;13.006;2023-11-21T09:38:42;1.67;;;0.70;;
25615;SDS011;13482;48.234;13.006;2023-11-21T09:44:18;2.00;;;0.80;;
25615;SDS011;13482;48.234;13.006;2023-11-21T09:47:02;2.55;;;0.80;;
25615;SDS011;13482;48.234;13.006;2023-11-21T09:49:31;1.15;;;0.50;;
25615;SDS011;13482;48.234;13.006;2023-11-21T09:52:01;1.27;;;0.60;;
25615;SDS011;13482;48.234;13.006;2023-11-21T09:54:30;1.42;;;0.70;;
25615;SDS011;13482;48.234;13.006;2023-11-21T09:56:59;1.33;;;0.70;;
25615;SDS011;13482;48.234;13.006;2023-11-21T09:59:29;1.80;;;0.65;;
25615;SDS011;13482;48.234;13.006;2023-11-21T10:02:02;2.03;;;0.90;;
25615;SDS011;13482;48.234;13.006;2023-11-21T10:04:30;2.17;;;1.10;;
25615;SDS011;13482;48.234;13.006;2023-11-21T10:06:58;2.33;;;1.15;;
25615;SDS011;13482;48.234;13.006;2023-11-21T10:09:26;5.15;;;4.65;;
25615;SDS011;13482;48.234;13.006;2023-11-21T10:11:55;6.70;;;5.75;;
25615;SDS011;13482;48.234;13.006;2023-11-21T10:14:24;8.45;;;7.65;;
25615;SDS011;13482;48.234;13.006;2023-11-21T10:16:55;23.63;;;21.27;;
25615;SDS011;13482;48.234;13.006;2023-11-21T10:19:25;14.88;;;13.32;;
25615;SDS011;13482;48.234;13.006;2023-11-21T10:21:53;8.98;;;8.10;;
25615;SDS011;13482;48.234;13.006;2023-11-21T10:24:24;5.05;;;4.47;;
25615;SDS011;13482;48.234;13.006;2023-11-21T10:26:51;3.63;;;3.13;;
25615;SDS011;13482;48.234;13.006;2023-11-21T10:29:20;3.47;;;2.25;;
25615;SDS011;13482;48.234;13.006;2023-11-21T10:31:49;4.03;;;1.70;;
25615;SDS011;13482;48.234;13.006;2023-11-21T10:34:19;2.28;;;1.10;;
25615;SDS011;13482;48.234;13.006;2023-11-21T10:36:48;1.88;;;0.93;;
25615;SDS011;13482;48.234;13.006;2023-11-21T10:39:18;1.83;;;0.88;;
25615;SDS011;13482;48.234;13.006;2023-11-21T10:41:47;1.42;;;0.60;;
25615;SDS011;13482;48.234;13.006;2023-11-21T10:44:19;1.52;;;0.70;;
25615;SDS011;13482;48.234;13.006;2023-11-21T10:46:52;1.85;;;0.70;;
25615;SDS011;13482;48.234;13.006;2023-11-21T10:49:27;1.60;;;0.55;;
25615;SDS011;13482;48.234;13.006;2023-11-21T10:51:55;1.67;;;0.70;;
25615;SDS011;13482;48.234;13.006;2023-11-21T10:54:24;1.52;;;0.65;;
25615;SDS011;13482;48.234;13.006;2023-11-21T10:56:53;2.03;;;0.70;;
25615;SDS011;13482;48.234;13.006;2023-11-21T10:59:29;1.83;;;0.70;;
25615;SDS011;13482;48.234;13.006;2023-11-21T11:01:59;1.52;;;0.60;;
25615;SDS011;13482;48.234;13.006;2023-11-21T11:04:48;1.88;;;0.70;;
25615;SDS011;13482;48.234;13.006;2023-11-21T11:07:16;1.30;;;0.68;;
25615;SDS011;13482;48.234;13.006;2023-11-21T11:09:44;1.42;;;0.73;;
25615;SDS011;13482;48.234;13.006;2023-11-21T11:12:15;1.40;;;0.70;;
25615;SDS011;13482;48.234;13.006;2023-11-21T11:14:45;1.10;;;0.63;;
25615;SDS011;13482;48.234;13.006;2023-11-21T11:17:15;2.08;;;0.90;;
25615;SDS011;13482;48.234;13.006;2023-11-21T11:28:46;1.15;;;0.55;;
25615;SDS011;13482;48.234;13.006;2023-11-21T11:34:54;1.23;;;0.70;;
25615;SDS011;13482;48.234;13.006;2023-11-21T11:37:31;0.82;;;0.50;;
25615;SDS011;13482;48.234;13.006;2023-11-21T11:39:59;1.25;;;0.50;;
25615;SDS011;13482;48.234;13.006;2023-11-21T11:42:27;1.20;;;0.50;;
25615;SDS011;13482;48.234;13.006;2023-11-21T11:44:57;1.55;;;0.65;;
25615;SDS011;13482;48.234;13.006;2023-11-21T11:47:26;1.20;;;0.60;;
25615;SDS011;13482;48.234;13.006;2023-11-21T11:50:08;1.55;;;0.65;;
25615;SDS011;13482;48.234;13.006;2023-11-21T11:52:44;1.30;;;0.60;;
25615;SDS011;13482;48.234;13.006;2023-11-21T11:55:18;2.28;;;0.60;;
25615;SDS011;13482;48.234;13.006;2023-11-21T11:57:52;1.42;;;0.60;;
25615;SDS011;13482;48.234;13.006;2023-11-21T12:02:56;1.42;;;0.60;;
25615;SDS011;13482;48.234;13.006;2023-11-21T12:05:33;0.82;;;0.50;;
25615;SDS011;13482;48.234;13.006;2023-11-21T12:08:06;1.70;;;0.60;;
25615;SDS011;13482;48.234;13.006;2023-11-21T12:10:36;0.70;;;0.40;;
25615;SDS011;13482;48.234;13.006;2023-11-21T12:13:07;1.08;;;0.52;;
25615;SDS011;13482;48.234;13.006;2023-11-21T12:15:39;0.80;;;0.52;;
25615;SDS011;13482;48.234;13.006;2023-11-21T12:18:08;1.20;;;0.40;;
25615;SDS011;13482;48.234;13.006;2023-11-21T12:20:36;1.42;;;0.68;;
25615;SDS011;13482;48.234;13.006;2023-11-21T12:23:06;1.17;;;0.60;;
25615;SDS011;13482;48.234;13.006;2023-11-21T12:25:36;1.33;;;0.50;;
25615;SDS011;13482;48.234;13.006;2023-11-21T12:28:09;1.70;;;0.52;;
25615;SDS011;13482;48.234;13.006;2023-11-21T12:30:37;1.33;;;0.60;;
25615;SDS011;13482;48.234;13.006;2023-11-21T12:33:06;1.25;;;0.80;;
25615;SDS011;13482;48.234;13.006;2023-11-21T12:35:36;1.70;;;0.80;;
25615;SDS011;13482;48.234;13.006;2023-11-21T12:38:05;1.80;;;0.80;;
25615;SDS011;13482;48.234;13.006;2023-11-21T12:40:33;1.15;;;0.70;;
25615;SDS011;13482;48.234;13.006;2023-11-21T12:43:01;1.30;;;0.70;;
25615;SDS011;13482;48.234;13.006;2023-11-21T12:45:31;1.15;;;0.68;;
25615;SDS011;13482;48.234;13.006;2023-11-21T12:48:04;1.52;;;0.70;;
25615;SDS011;13482;48.234;13.006;2023-11-21T12:50:38;1.02;;;0.63;;
25615;SDS011;13482;48.234;13.006;2023-11-21T12:53:07;1.58;;;0.63;;
25615;SDS011;13482;48.234;13.006;2023-11-21T12:55:43;0.85;;;0.57;;
25615;SDS011;13482;48.234;13.006;2023-11-21T12:58:17;1.15;;;0.60;;
25615;SDS011;13482;48.234;13.006;2023-11-21T13:00:47;0.73;;;0.45;;
25615;SDS011;13482;48.234;13.006;2023-11-21T13:03:16;0.70;;;0.50;;
25615;SDS011;13482;48.234;13.006;2023-11-21T13:05:47;1.00;;;0.50;;
25615;SDS011;13482;48.234;13.006;2023-11-21T13:08:19;0.98;;;0.55;;
25615;SDS011;13482;48.234;13.006;2023-11-21T13:10:55;1.98;;;0.63;;
25615;SDS011;13482;48.234;13.006;2023-11-21T13:13:30;1.13;;;0.63;;
25615;SDS011;13482;48.234;13.006;2023-11-21T13:16:00;1.10;;;0.57;;
25615;SDS011;13482;48.234;13.006;2023-11-21T13:18:32;0.68;;;0.40;;
25615;SDS011;13482;48.234;13.006;2023-11-21T13:21:04;1.08;;;0.57;;
25615;SDS011;13482;48.234;13.006;2023-11-21T13:23:44;1.20;;;0.60;;
25615;SDS011;13482;48.234;13.006;2023-11-21T13:26:13;1.02;;;0.50;;
25615;SDS011;13482;48.234;13.006;2023-11-21T13:28:42;1.25;;;0.60;;
25615;SDS011;13482;48.234;13.006;2023-11-21T13:31:14;1.15;;;0.50;;
25615;SDS011;13482;48.234;13.006;2023-11-21T13:33:49;0.95;;;0.45;;
25615;SDS011;13482;48.234;13.006;2023-11-21T13:36:23;1.17;;;0.65;;
25615;SDS011;13482;48.234;13.006;2023-11-21T13:38:52;1.02;;;0.60;;
25615;SDS011;13482;48.234;13.006;2023-11-21T13:41:20;1.27;;;0.70;;
25615;SDS011;13482;48.234;13.006;2023-11-21T13:43:54;1.27;;;0.65;;
25615;SDS011;13482;48.234;13.006;2023-11-21T13:46:41;1.50;;;0.50;;
25615;SDS011;13482;48.234;13.006;2023-11-21T13:49:09;1.20;;;0.68;;
25615;SDS011;13482;48.234;13.006;2023-11-21T13:51:37;1.20;;;0.60;;
25615;SDS011;13482;48.234;13.006;2023-11-21T13:54:11;1.45;;;0.80;;
25615;SDS011;13482;48.234;13.006;2023-11-21T13:56:41;1.90;;;0.82;;
25615;SDS011;13482;48.234;13.006;2023-11-21T13:59:17;1.52;;;0.65;;
25615;SDS011;13482;48.234;13.006;2023-11-21T14:01:52;1.52;;;0.50;;
25615;SDS011;13482;48.234;13.006;2023-11-21T14:04:23;1.48;;;0.50;;
25615;SDS011;13482;48.234;13.006;2023-11-21T14:06:58;1.70;;;0.50;;
25615;SDS011;13482;48.234;13.006;2023-11-21T14:09:28;1.58;;;0.50;;
25615;SDS011;13482;48.234;13.006;2023-11-21T14:12:11;0.57;;;0.47;;
25615;SDS011;13482;48.234;13.006;2023-11-21T14:14:41;0.90;;;0.50;;
25615;SDS011;13482;48.234;13.006;2023-11-21T14:17:08;2.15;;;0.70;;
25615;SDS011;13482;48.234;13.006;2023-11-21T14:19:37;0.93;;;0.40;;
25615;SDS011;13482;48.234;13.006;2023-11-21T14:22:10;1.33;;;0.70;;
25615;SDS011;13482;48.234;13.006;2023-11-21T14:24:38;1.08;;;0.60;;
25615;SDS011;13482;48.234;13.006;2023-11-21T14:27:13;0.85;;;0.50;;
25615;SDS011;13482;48.234;13.006;2023-11-21T14:29:41;1.38;;;0.60;;
25615;SDS011;13482;48.234;13.006;2023-11-21T14:32:11;1.52;;;0.80;;
25615;SDS011;13482;48.234;13.006;2023-11-21T14:34:41;1.65;;;0.80;;
25615;SDS011;13482;48.234;13.006;2023-11-21T14:37:12;1.03;;;0.70;;
25615;SDS011;13482;48.234;13.006;2023-11-21T14:39:40;1.13;;;0.68;;
25615;SDS011;13482;48.234;13.006;2023-11-21T14:42:11;0.70;;;0.50;;
25615;SDS011;13482;48.234;13.006;2023-11-21T14:44:42;1.50;;;0.60;;
25615;SDS011;13482;48.234;13.006;2023-11-21T14:47:09;0.98;;;0.55;;
25615;SDS011;13482;48.234;13.006;2023-11-21T14:49:42;1.85;;;0.70;;
25615;SDS011;13482;48.234;13.006;2023-11-21T14:52:20;1.75;;;0.80;;
25615;SDS011;13482;48.234;13.006;2023-11-21T14:54:57;0.68;;;0.50;;
25615;SDS011;13482;48.234;13.006;2023-11-21T14:57:48;0.90;;;0.55;;
25615;SDS011;13482;48.234;13.006;2023-11-21T15:00:19;1.27;;;0.60;;
25615;SDS011;13482;48.234;13.006;2023-11-21T15:03:03;1.33;;;0.70;;
25615;SDS011;13482;48.234;13.006;2023-11-21T15:05:33;1.05;;;0.68;;
25615;SDS011;13482;48.234;13.006;2023-11-21T15:08:02;1.33;;;0.85;;